sensor_id;sensor_type;location;lat;lon;timestamp;P1;durP1;ratioP1;P2;durP2;ratioP2
15516;SDS011;7860;52.030;5.572;2022-09-09T00:02:37;7.00;;;2.92;;
15516;SDS011;7860;52.030;5.572;2022-09-09T00:02:38;8.70;;;3.19;;
15516;SDS011;7860;52.030;5.572;2022-09-09T00:02:38;7.30;;;2.93;;
15516;SDS011;7860;52.030;5.572;2022-09-09T00:03:24;6.75;;;2.69;;
15516;SDS011;7860;52.030;5.572;2022-09-09T00:04:25;5.21;;;2.39;;
15516;SDS011;7860;52.030;5.572;2022-09-09T00:05:24;7.12;;;2.57;;
15516;SDS011;7860;52.030;5.572;2022-09-09T00:06:23;4.94;;;2.34;;
15516;SDS011;7860;52.030;5.572;2022-09-09T00:07:24;5.55;;;2.50;;
15516;SDS011;7860;52.030;5.572;2022-09-09T00:08:25;5.65;;;2.35;;
15516;SDS011;7860;52.030;5.572;2022-09-09T00:09:24;6.61;;;2.76;;
15516;SDS011;7860;52.030;5.572;2022-09-09T00:10:24;6.72;;;2.44;;
15516;SDS011;7860;52.030;5.572;2022-09-09T00:11:24;6.07;;;2.58;;
15516;SDS011;7860;52.030;5.572;2022-09-09T00:12:25;5.55;;;2.52;;
15516;SDS011;7860;52.030;5.572;2022-09-09T00:13:25;7.40;;;2.54;;
15516;SDS011;7860;52.030;5.572;2022-09-09T00:14:25;5.91;;;2.56;;
15516;SDS011;7860;52.030;5.572;2022-09-09T00:15:24;5.47;;;2.53;;
15516;SDS011;7860;52.030;5.572;2022-09-09T00:16:24;6.79;;;2.84;;
15516;SDS011;7860;52.030;5.572;2022-09-09T00:17:26;6.35;;;2.75;;
15516;SDS011;7860;52.030;5.572;2022-09-09T00:18:24;6.48;;;2.53;;
15516;SDS011;7860;52.030;5.572;2022-09-09T00:19:24;6.39;;;2.88;;
15516;SDS011;7860;52.030;5.572;2022-09-09T00:20:25;6.60;;;2.87;;
15516;SDS011;7860;52.030;5.572;2022-09-09T00:21:24;7.32;;;3.14;;
15516;SDS011;7860;52.030;5.572;2022-09-09T00:22:23;7.77;;;3.11;;
15516;SDS011;7860;52.030;5.572;2022-09-09T00:23:24;7.94;;;3.18;;
15516;SDS011;7860;52.030;5.572;2022-09-09T00:24:24;6.59;;;2.98;;
15516;SDS011;7860;52.030;5.572;2022-09-09T00:25:26;8.10;;;3.20;;
15516;SDS011;7860;52.030;5.572;2022-09-09T00:26:26;5.79;;;2.82;;
15516;SDS011;7860;52.030;5.572;2022-09-09T00:27:25;6.81;;;3.14;;
15516;SDS011;7860;52.030;5.572;2022-09-09T00:28:25;6.55;;;3.20;;
15516;SDS011;7860;52.030;5.572;2022-09-09T00:29:25;6.22;;;3.04;;
15516;SDS011;7860;52.030;5.572;2022-09-09T00:30:24;6.28;;;3.06;;
15516;SDS011;7860;52.030;5.572;2022-09-09T00:31:25;8.03;;;3.52;;
15516;SDS011;7860;52.030;5.572;2022-09-09T00:32:24;6.63;;;3.08;;
15516;SDS011;7860;52.030;5.572;2022-09-09T00:33:24;7.71;;;3.32;;
15516;SDS011;7860;52.030;5.572;2022-09-09T00:34:24;7.44;;;3.17;;
15516;SDS011;7860;52.030;5.572;2022-09-09T00:35:25;6.99;;;3.49;;
15516;SDS011;7860;52.030;5.572;2022-09-09T00:36:24;7.61;;;3.51;;
15516;SDS011;7860;52.030;5.572;2022-09-09T00:37:25;7.37;;;3.44;;
15516;SDS011;7860;52.030;5.572;2022-09-09T00:38:26;8.71;;;3.34;;
15516;SDS011;7860;52.030;5.572;2022-09-09T00:39:27;6.47;;;3.06;;
15516;SDS011;7860;52.030;5.572;2022-09-09T00:40:26;7.34;;;3.36;;
15516;SDS011;7860;52.030;5.572;2022-09-09T00:41:29;6.83;;;3.43;;
15516;SDS011;7860;52.030;5.572;2022-09-09T00:42:26;7.27;;;3.20;;
15516;SDS011;7860;52.030;5.572;2022-09-09T00:43:27;7.20;;;3.16;;
15516;SDS011;7860;52.030;5.572;2022-09-09T00:44:27;8.11;;;3.35;;
15516;SDS011;7860;52.030;5.572;2022-09-09T00:45:35;6.72;;;3.18;;
15516;SDS011;7860;52.030;5.572;2022-09-09T00:46:29;7.53;;;3.22;;
15516;SDS011;7860;52.030;5.572;2022-09-09T00:47:30;8.11;;;3.35;;
15516;SDS011;7860;52.030;5.572;2022-09-09T00:48:27;7.73;;;3.29;;
15516;SDS011;7860;52.030;5.572;2022-09-09T00:49:28;7.64;;;3.20;;
15516;SDS011;7860;52.030;5.572;2022-09-09T00:50:29;6.72;;;2.96;;
15516;SDS011;7860;52.030;5.572;2022-09-09T00:51:29;6.71;;;3.12;;
15516;SDS011;7860;52.030;5.572;2022-09-09T00:52:30;7.64;;;3.10;;
15516;SDS011;7860;52.030;5.572;2022-09-09T00:53:29;8.64;;;2.85;;
15516;SDS011;7860;52.030;5.572;2022-09-09T00:54:30;7.26;;;3.16;;
15516;SDS011;7860;52.030;5.572;2022-09-09T00:55:28;8.00;;;3.29;;
15516;SDS011;7860;52.030;5.572;2022-09-09T00:56:27;6.54;;;2.81;;
15516;SDS011;7860;52.030;5.572;2022-09-09T00:57:28;7.91;;;3.07;;
15516;SDS011;7860;52.030;5.572;2022-09-09T00:58:28;6.86;;;3.04;;
15516;SDS011;7860;52.030;5.572;2022-09-09T00:59:28;5.88;;;2.91;;
15516;SDS011;7860;52.030;5.572;2022-09-09T01:00:29;7.52;;;2.77;;
15516;SDS011;7860;52.030;5.572;2022-09-09T01:01:28;5.09;;;2.50;;
15516;SDS011;7860;52.030;5.572;2022-09-09T01:02:28;6.04;;;2.80;;
15516;SDS011;7860;52.030;5.572;2022-09-09T01:03:30;5.46;;;2.58;;
15516;SDS011;7860;52.030;5.572;2022-09-09T01:04:29;7.19;;;2.75;;
15516;SDS011;7860;52.030;5.572;2022-09-09T01:05:30;6.05;;;2.76;;
15516;SDS011;7860;52.030;5.572;2022-09-09T01:06:29;5.80;;;2.78;;
15516;SDS011;7860;52.030;5.572;2022-09-09T01:07:28;8.06;;;2.96;;
15516;SDS011;7860;52.030;5.572;2022-09-09T01:08:35;8.36;;;3.15;;
15516;SDS011;7860;52.030;5.572;2022-09-09T01:09:29;6.56;;;2.80;;
15516;SDS011;7860;52.030;5.572;2022-09-09T01:10:30;7.43;;;3.15;;
15516;SDS011;7860;52.030;5.572;2022-09-09T01:11:31;8.00;;;3.38;;
15516;SDS011;7860;52.030;5.572;2022-09-09T01:12:32;7.47;;;3.23;;
15516;SDS011;7860;52.030;5.572;2022-09-09T01:13:30;7.98;;;3.46;;
15516;SDS011;7860;52.030;5.572;2022-09-09T01:14:31;8.50;;;3.32;;
15516;SDS011;7860;52.030;5.572;2022-09-09T01:15:29;9.80;;;3.57;;
15516;SDS011;7860;52.030;5.572;2022-09-09T01:16:30;9.10;;;3.77;;
15516;SDS011;7860;52.030;5.572;2022-09-09T01:17:30;9.63;;;3.63;;
15516;SDS011;7860;52.030;5.572;2022-09-09T01:18:31;8.66;;;3.65;;
15516;SDS011;7860;52.030;5.572;2022-09-09T01:19:33;7.83;;;3.65;;
15516;SDS011;7860;52.030;5.572;2022-09-09T01:20:31;8.56;;;3.81;;
15516;SDS011;7860;52.030;5.572;2022-09-09T01:21:32;10.69;;;3.89;;
15516;SDS011;7860;52.030;5.572;2022-09-09T01:22:33;9.56;;;3.63;;
15516;SDS011;7860;52.030;5.572;2022-09-09T01:23:33;9.94;;;4.10;;
15516;SDS011;7860;52.030;5.572;2022-09-09T01:24:31;9.50;;;4.06;;
15516;SDS011;7860;52.030;5.572;2022-09-09T01:25:56;9.49;;;4.11;;
15516;SDS011;7860;52.030;5.572;2022-09-09T01:26:30;11.08;;;4.21;;
15516;SDS011;7860;52.030;5.572;2022-09-09T01:27:30;9.09;;;3.92;;
15516;SDS011;7860;52.030;5.572;2022-09-09T01:28:30;9.53;;;3.98;;
15516;SDS011;7860;52.030;5.572;2022-09-09T01:29:30;12.43;;;4.58;;
15516;SDS011;7860;52.030;5.572;2022-09-09T01:30:30;10.50;;;4.27;;
15516;SDS011;7860;52.030;5.572;2022-09-09T01:31:32;9.91;;;4.16;;
15516;SDS011;7860;52.030;5.572;2022-09-09T01:32:38;9.59;;;4.20;;
15516;SDS011;7860;52.030;5.572;2022-09-09T01:33:31;10.20;;;3.97;;
15516;SDS011;7860;52.030;5.572;2022-09-09T01:34:32;8.61;;;3.70;;
15516;SDS011;7860;52.030;5.572;2022-09-09T01:35:35;8.38;;;3.56;;
15516;SDS011;7860;52.030;5.572;2022-09-09T01:36:32;8.65;;;3.60;;
15516;SDS011;7860;52.030;5.572;2022-09-09T01:37:31;8.12;;;3.71;;
15516;SDS011;7860;52.030;5.572;2022-09-09T01:38:32;8.05;;;3.55;;
15516;SDS011;7860;52.030;5.572;2022-09-09T01:39:32;7.24;;;3.23;;
15516;SDS011;7860;52.030;5.572;2022-09-09T01:40:32;6.90;;;3.07;;
15516;SDS011;7860;52.030;5.572;2022-09-09T01:41:33;7.39;;;3.37;;
15516;SDS011;7860;52.030;5.572;2022-09-09T01:42:33;6.82;;;3.11;;
15516;SDS011;7860;52.030;5.572;2022-09-09T01:43:33;7.72;;;3.65;;
15516;SDS011;7860;52.030;5.572;2022-09-09T01:44:33;7.64;;;3.36;;
15516;SDS011;7860;52.030;5.572;2022-09-09T01:45:33;9.32;;;3.94;;
15516;SDS011;7860;52.030;5.572;2022-09-09T01:46:34;8.92;;;3.78;;
15516;SDS011;7860;52.030;5.572;2022-09-09T01:47:34;9.00;;;3.82;;
15516;SDS011;7860;52.030;5.572;2022-09-09T01:48:34;8.18;;;3.68;;
15516;SDS011;7860;52.030;5.572;2022-09-09T01:49:34;8.84;;;4.05;;
15516;SDS011;7860;52.030;5.572;2022-09-09T01:50:34;9.87;;;4.07;;
15516;SDS011;7860;52.030;5.572;2022-09-09T01:51:35;11.33;;;4.70;;
15516;SDS011;7860;52.030;5.572;2022-09-09T01:52:35;8.31;;;3.98;;
15516;SDS011;7860;52.030;5.572;2022-09-09T01:53:35;9.90;;;4.14;;
15516;SDS011;7860;52.030;5.572;2022-09-09T01:54:35;8.72;;;4.06;;
15516;SDS011;7860;52.030;5.572;2022-09-09T01:55:37;8.50;;;4.34;;
15516;SDS011;7860;52.030;5.572;2022-09-09T01:56:39;8.65;;;4.12;;
15516;SDS011;7860;52.030;5.572;2022-09-09T01:57:38;10.15;;;4.34;;
15516;SDS011;7860;52.030;5.572;2022-09-09T01:58:39;8.14;;;4.01;;
15516;SDS011;7860;52.030;5.572;2022-09-09T01:59:40;8.81;;;4.26;;
15516;SDS011;7860;52.030;5.572;2022-09-09T02:00:37;8.38;;;3.93;;
15516;SDS011;7860;52.030;5.572;2022-09-09T02:01:40;11.80;;;4.76;;
15516;SDS011;7860;52.030;5.572;2022-09-09T02:02:38;7.72;;;3.91;;
15516;SDS011;7860;52.030;5.572;2022-09-09T02:03:37;9.29;;;4.32;;
15516;SDS011;7860;52.030;5.572;2022-09-09T02:04:38;8.59;;;4.17;;
15516;SDS011;7860;52.030;5.572;2022-09-09T02:05:38;10.53;;;4.26;;
15516;SDS011;7860;52.030;5.572;2022-09-09T02:06:38;8.94;;;4.59;;
15516;SDS011;7860;52.030;5.572;2022-09-09T02:07:38;10.04;;;4.31;;
15516;SDS011;7860;52.030;5.572;2022-09-09T02:08:40;9.29;;;4.32;;
15516;SDS011;7860;52.030;5.572;2022-09-09T02:09:38;13.19;;;4.51;;
15516;SDS011;7860;52.030;5.572;2022-09-09T02:10:41;9.81;;;4.36;;
15516;SDS011;7860;52.030;5.572;2022-09-09T02:11:38;9.86;;;4.57;;
15516;SDS011;7860;52.030;5.572;2022-09-09T02:12:39;9.91;;;4.33;;
15516;SDS011;7860;52.030;5.572;2022-09-09T02:13:40;8.37;;;4.37;;
15516;SDS011;7860;52.030;5.572;2022-09-09T02:14:40;8.88;;;4.62;;
15516;SDS011;7860;52.030;5.572;2022-09-09T02:15:41;10.14;;;4.39;;
15516;SDS011;7860;52.030;5.572;2022-09-09T02:16:40;8.85;;;4.19;;
15516;SDS011;7860;52.030;5.572;2022-09-09T02:17:40;9.45;;;4.51;;
15516;SDS011;7860;52.030;5.572;2022-09-09T02:18:42;9.35;;;4.18;;
15516;SDS011;7860;52.030;5.572;2022-09-09T02:19:42;10.05;;;4.68;;
15516;SDS011;7860;52.030;5.572;2022-09-09T02:20:41;9.16;;;4.08;;
15516;SDS011;7860;52.030;5.572;2022-09-09T02:21:42;9.79;;;4.45;;
15516;SDS011;7860;52.030;5.572;2022-09-09T02:22:42;8.06;;;3.95;;
15516;SDS011;7860;52.030;5.572;2022-09-09T02:23:42;8.26;;;4.30;;
15516;SDS011;7860;52.030;5.572;2022-09-09T02:24:42;7.83;;;3.72;;
15516;SDS011;7860;52.030;5.572;2022-09-09T02:25:42;8.98;;;4.18;;
15516;SDS011;7860;52.030;5.572;2022-09-09T02:26:42;9.23;;;3.93;;
15516;SDS011;7860;52.030;5.572;2022-09-09T02:27:42;9.93;;;4.20;;
15516;SDS011;7860;52.030;5.572;2022-09-09T02:28:42;9.57;;;4.31;;
15516;SDS011;7860;52.030;5.572;2022-09-09T02:29:42;8.95;;;4.15;;
15516;SDS011;7860;52.030;5.572;2022-09-09T02:30:42;11.38;;;4.27;;
15516;SDS011;7860;52.030;5.572;2022-09-09T02:31:43;9.30;;;4.45;;
15516;SDS011;7860;52.030;5.572;2022-09-09T02:32:43;8.86;;;4.34;;
15516;SDS011;7860;52.030;5.572;2022-09-09T02:33:44;9.77;;;4.26;;
15516;SDS011;7860;52.030;5.572;2022-09-09T02:34:43;9.33;;;4.20;;
15516;SDS011;7860;52.030;5.572;2022-09-09T02:35:44;11.73;;;4.33;;
15516;SDS011;7860;52.030;5.572;2022-09-09T02:36:44;9.49;;;4.18;;
15516;SDS011;7860;52.030;5.572;2022-09-09T02:37:44;10.47;;;4.41;;
15516;SDS011;7860;52.030;5.572;2022-09-09T02:38:45;8.75;;;3.97;;
15516;SDS011;7860;52.030;5.572;2022-09-09T02:39:44;10.77;;;4.01;;
15516;SDS011;7860;52.030;5.572;2022-09-09T02:40:44;10.02;;;4.30;;
15516;SDS011;7860;52.030;5.572;2022-09-09T02:41:44;11.24;;;4.52;;
15516;SDS011;7860;52.030;5.572;2022-09-09T02:42:45;9.67;;;4.22;;
15516;SDS011;7860;52.030;5.572;2022-09-09T02:43:44;10.11;;;4.32;;
15516;SDS011;7860;52.030;5.572;2022-09-09T02:44:44;8.96;;;3.79;;
15516;SDS011;7860;52.030;5.572;2022-09-09T02:45:47;9.48;;;4.22;;
15516;SDS011;7860;52.030;5.572;2022-09-09T02:46:55;9.97;;;4.44;;
15516;SDS011;7860;52.030;5.572;2022-09-09T02:47:46;10.01;;;4.24;;
15516;SDS011;7860;52.030;5.572;2022-09-09T02:48:47;10.37;;;4.39;;
15516;SDS011;7860;52.030;5.572;2022-09-09T02:49:47;9.02;;;4.27;;
15516;SDS011;7860;52.030;5.572;2022-09-09T02:50:48;9.33;;;4.41;;
15516;SDS011;7860;52.030;5.572;2022-09-09T02:51:48;9.76;;;4.47;;
15516;SDS011;7860;52.030;5.572;2022-09-09T02:52:48;9.91;;;4.30;;
15516;SDS011;7860;52.030;5.572;2022-09-09T02:53:47;9.09;;;3.99;;
15516;SDS011;7860;52.030;5.572;2022-09-09T02:54:47;9.25;;;4.15;;
15516;SDS011;7860;52.030;5.572;2022-09-09T02:55:47;8.40;;;4.11;;
15516;SDS011;7860;52.030;5.572;2022-09-09T02:56:48;11.13;;;4.58;;
15516;SDS011;7860;52.030;5.572;2022-09-09T02:57:47;9.51;;;4.08;;
15516;SDS011;7860;52.030;5.572;2022-09-09T02:58:48;9.83;;;4.22;;
15516;SDS011;7860;52.030;5.572;2022-09-09T02:59:48;8.97;;;4.08;;
15516;SDS011;7860;52.030;5.572;2022-09-09T03:00:49;10.09;;;4.04;;
15516;SDS011;7860;52.030;5.572;2022-09-09T03:01:48;10.35;;;4.45;;
15516;SDS011;7860;52.030;5.572;2022-09-09T03:02:48;10.88;;;4.29;;
15516;SDS011;7860;52.030;5.572;2022-09-09T03:03:48;11.73;;;4.64;;
15516;SDS011;7860;52.030;5.572;2022-09-09T03:04:48;9.05;;;4.08;;
15516;SDS011;7860;52.030;5.572;2022-09-09T03:05:48;10.22;;;3.99;;
15516;SDS011;7860;52.030;5.572;2022-09-09T03:06:48;9.86;;;4.76;;
15516;SDS011;7860;52.030;5.572;2022-09-09T03:07:48;12.08;;;4.36;;
15516;SDS011;7860;52.030;5.572;2022-09-09T03:08:48;11.22;;;4.71;;
15516;SDS011;7860;52.030;5.572;2022-09-09T03:09:48;11.37;;;4.42;;
15516;SDS011;7860;52.030;5.572;2022-09-09T03:10:48;9.24;;;4.01;;
15516;SDS011;7860;52.030;5.572;2022-09-09T03:11:48;12.95;;;4.31;;
15516;SDS011;7860;52.030;5.572;2022-09-09T03:12:49;9.57;;;4.24;;
15516;SDS011;7860;52.030;5.572;2022-09-09T03:13:49;10.54;;;4.19;;
15516;SDS011;7860;52.030;5.572;2022-09-09T03:14:49;10.11;;;4.01;;
15516;SDS011;7860;52.030;5.572;2022-09-09T03:15:49;10.41;;;4.29;;
15516;SDS011;7860;52.030;5.572;2022-09-09T03:16:49;10.39;;;4.67;;
15516;SDS011;7860;52.030;5.572;2022-09-09T03:17:49;10.26;;;4.32;;
15516;SDS011;7860;52.030;5.572;2022-09-09T03:18:49;9.55;;;4.21;;
15516;SDS011;7860;52.030;5.572;2022-09-09T03:19:49;11.66;;;4.61;;
15516;SDS011;7860;52.030;5.572;2022-09-09T03:20:49;10.16;;;4.20;;
15516;SDS011;7860;52.030;5.572;2022-09-09T03:21:49;12.62;;;4.87;;
15516;SDS011;7860;52.030;5.572;2022-09-09T03:22:50;10.40;;;4.36;;
15516;SDS011;7860;52.030;5.572;2022-09-09T03:23:50;10.64;;;4.28;;
15516;SDS011;7860;52.030;5.572;2022-09-09T03:24:50;10.38;;;4.67;;
15516;SDS011;7860;52.030;5.572;2022-09-09T03:25:50;10.35;;;4.50;;
15516;SDS011;7860;52.030;5.572;2022-09-09T03:26:51;10.48;;;4.57;;
15516;SDS011;7860;52.030;5.572;2022-09-09T03:27:51;9.97;;;4.69;;
15516;SDS011;7860;52.030;5.572;2022-09-09T03:28:51;9.58;;;4.56;;
15516;SDS011;7860;52.030;5.572;2022-09-09T03:29:51;12.21;;;5.12;;
15516;SDS011;7860;52.030;5.572;2022-09-09T03:30:51;10.99;;;4.62;;
15516;SDS011;7860;52.030;5.572;2022-09-09T03:31:52;13.24;;;5.10;;
15516;SDS011;7860;52.030;5.572;2022-09-09T03:32:53;10.36;;;4.36;;
15516;SDS011;7860;52.030;5.572;2022-09-09T03:33:53;10.98;;;4.87;;
15516;SDS011;7860;52.030;5.572;2022-09-09T03:34:53;9.44;;;4.51;;
15516;SDS011;7860;52.030;5.572;2022-09-09T03:35:53;11.85;;;5.14;;
15516;SDS011;7860;52.030;5.572;2022-09-09T03:36:53;9.76;;;5.00;;
15516;SDS011;7860;52.030;5.572;2022-09-09T03:37:53;11.94;;;5.20;;
15516;SDS011;7860;52.030;5.572;2022-09-09T03:38:53;9.76;;;4.83;;
15516;SDS011;7860;52.030;5.572;2022-09-09T03:39:53;11.60;;;4.68;;
15516;SDS011;7860;52.030;5.572;2022-09-09T03:40:54;10.98;;;4.80;;
15516;SDS011;7860;52.030;5.572;2022-09-09T03:41:54;11.15;;;4.96;;
15516;SDS011;7860;52.030;5.572;2022-09-09T03:42:54;10.51;;;4.69;;
15516;SDS011;7860;52.030;5.572;2022-09-09T03:43:54;11.74;;;4.67;;
15516;SDS011;7860;52.030;5.572;2022-09-09T03:44:54;10.54;;;4.93;;
15516;SDS011;7860;52.030;5.572;2022-09-09T03:45:55;10.93;;;5.07;;
15516;SDS011;7860;52.030;5.572;2022-09-09T03:46:55;14.12;;;5.68;;
15516;SDS011;7860;52.030;5.572;2022-09-09T03:47:55;11.89;;;5.28;;
15516;SDS011;7860;52.030;5.572;2022-09-09T03:48:55;11.77;;;4.73;;
15516;SDS011;7860;52.030;5.572;2022-09-09T03:49:55;12.54;;;5.33;;
15516;SDS011;7860;52.030;5.572;2022-09-09T03:50:55;12.83;;;5.60;;
15516;SDS011;7860;52.030;5.572;2022-09-09T03:51:55;11.35;;;5.20;;
15516;SDS011;7860;52.030;5.572;2022-09-09T03:52:56;10.64;;;5.07;;
15516;SDS011;7860;52.030;5.572;2022-09-09T03:53:56;13.83;;;5.67;;
15516;SDS011;7860;52.030;5.572;2022-09-09T03:54:57;13.28;;;5.60;;
15516;SDS011;7860;52.030;5.572;2022-09-09T03:55:57;13.30;;;5.18;;
15516;SDS011;7860;52.030;5.572;2022-09-09T03:56:57;14.86;;;5.88;;
15516;SDS011;7860;52.030;5.572;2022-09-09T03:57:57;12.52;;;5.51;;
15516;SDS011;7860;52.030;5.572;2022-09-09T03:58:57;13.53;;;5.44;;
15516;SDS011;7860;52.030;5.572;2022-09-09T03:59:57;13.38;;;5.41;;
15516;SDS011;7860;52.030;5.572;2022-09-09T04:00:58;13.40;;;5.56;;
15516;SDS011;7860;52.030;5.572;2022-09-09T04:01:57;13.59;;;5.70;;
15516;SDS011;7860;52.030;5.572;2022-09-09T04:02:57;13.55;;;5.48;;
15516;SDS011;7860;52.030;5.572;2022-09-09T04:03:57;14.93;;;5.69;;
15516;SDS011;7860;52.030;5.572;2022-09-09T04:04:57;14.15;;;5.67;;
15516;SDS011;7860;52.030;5.572;2022-09-09T04:05:58;13.46;;;5.67;;
15516;SDS011;7860;52.030;5.572;2022-09-09T04:06:57;13.05;;;5.54;;
15516;SDS011;7860;52.030;5.572;2022-09-09T04:07:57;12.92;;;5.38;;
15516;SDS011;7860;52.030;5.572;2022-09-09T04:08:58;12.69;;;5.07;;
15516;SDS011;7860;52.030;5.572;2022-09-09T04:09:58;12.34;;;4.96;;
15516;SDS011;7860;52.030;5.572;2022-09-09T04:10:58;12.79;;;5.22;;
15516;SDS011;7860;52.030;5.572;2022-09-09T04:11:58;13.32;;;5.19;;
15516;SDS011;7860;52.030;5.572;2022-09-09T04:12:58;13.59;;;5.45;;
15516;SDS011;7860;52.030;5.572;2022-09-09T04:13:58;15.94;;;5.84;;
15516;SDS011;7860;52.030;5.572;2022-09-09T04:14:58;14.45;;;5.39;;
15516;SDS011;7860;52.030;5.572;2022-09-09T04:15:59;14.74;;;5.67;;
15516;SDS011;7860;52.030;5.572;2022-09-09T04:16:58;15.69;;;6.05;;
15516;SDS011;7860;52.030;5.572;2022-09-09T04:17:58;12.74;;;5.58;;
15516;SDS011;7860;52.030;5.572;2022-09-09T04:18:59;13.01;;;5.60;;
15516;SDS011;7860;52.030;5.572;2022-09-09T04:19:59;13.85;;;5.48;;
15516;SDS011;7860;52.030;5.572;2022-09-09T04:20:59;13.52;;;5.28;;
15516;SDS011;7860;52.030;5.572;2022-09-09T04:21:59;14.50;;;5.43;;
15516;SDS011;7860;52.030;5.572;2022-09-09T04:22:59;10.91;;;4.90;;
15516;SDS011;7860;52.030;5.572;2022-09-09T04:23:59;12.32;;;4.76;;
15516;SDS011;7860;52.030;5.572;2022-09-09T04:24:59;12.36;;;4.55;;
15516;SDS011;7860;52.030;5.572;2022-09-09T04:26:00;13.53;;;5.35;;
15516;SDS011;7860;52.030;5.572;2022-09-09T04:27:00;14.21;;;5.26;;
15516;SDS011;7860;52.030;5.572;2022-09-09T04:28:00;13.56;;;4.98;;
15516;SDS011;7860;52.030;5.572;2022-09-09T04:29:00;11.86;;;4.97;;
15516;SDS011;7860;52.030;5.572;2022-09-09T04:30:00;12.12;;;5.19;;
15516;SDS011;7860;52.030;5.572;2022-09-09T04:31:03;14.96;;;5.29;;
15516;SDS011;7860;52.030;5.572;2022-09-09T04:32:00;12.88;;;5.27;;
15516;SDS011;7860;52.030;5.572;2022-09-09T04:33:01;13.18;;;5.24;;
15516;SDS011;7860;52.030;5.572;2022-09-09T04:34:01;13.94;;;5.53;;
15516;SDS011;7860;52.030;5.572;2022-09-09T04:35:01;14.20;;;5.49;;
15516;SDS011;7860;52.030;5.572;2022-09-09T04:36:01;13.65;;;5.08;;
15516;SDS011;7860;52.030;5.572;2022-09-09T04:37:01;13.23;;;5.42;;
15516;SDS011;7860;52.030;5.572;2022-09-09T04:38:03;13.25;;;5.39;;
15516;SDS011;7860;52.030;5.572;2022-09-09T04:39:03;12.25;;;5.28;;
15516;SDS011;7860;52.030;5.572;2022-09-09T04:40:03;16.46;;;5.74;;
15516;SDS011;7860;52.030;5.572;2022-09-09T04:41:03;13.99;;;5.35;;
15516;SDS011;7860;52.030;5.572;2022-09-09T04:42:03;13.77;;;5.00;;
15516;SDS011;7860;52.030;5.572;2022-09-09T04:43:03;12.52;;;5.12;;
15516;SDS011;7860;52.030;5.572;2022-09-09T04:44:03;11.38;;;4.80;;
15516;SDS011;7860;52.030;5.572;2022-09-09T04:45:05;10.96;;;4.67;;
15516;SDS011;7860;52.030;5.572;2022-09-09T04:46:04;10.49;;;4.71;;
15516;SDS011;7860;52.030;5.572;2022-09-09T04:47:04;12.65;;;5.04;;
15516;SDS011;7860;52.030;5.572;2022-09-09T04:48:04;11.58;;;4.89;;
15516;SDS011;7860;52.030;5.572;2022-09-09T04:49:05;10.56;;;4.82;;
15516;SDS011;7860;52.030;5.572;2022-09-09T04:50:06;12.23;;;4.72;;
15516;SDS011;7860;52.030;5.572;2022-09-09T04:51:06;10.92;;;4.38;;
15516;SDS011;7860;52.030;5.572;2022-09-09T04:52:05;8.96;;;4.64;;
15516;SDS011;7860;52.030;5.572;2022-09-09T04:53:05;8.91;;;4.35;;
15516;SDS011;7860;52.030;5.572;2022-09-09T04:54:06;9.66;;;4.53;;
15516;SDS011;7860;52.030;5.572;2022-09-09T04:55:07;10.24;;;4.51;;
15516;SDS011;7860;52.030;5.572;2022-09-09T04:56:07;10.31;;;4.38;;
15516;SDS011;7860;52.030;5.572;2022-09-09T04:57:06;11.95;;;4.55;;
15516;SDS011;7860;52.030;5.572;2022-09-09T04:58:07;11.06;;;4.51;;
15516;SDS011;7860;52.030;5.572;2022-09-09T04:59:07;8.50;;;3.95;;
15516;SDS011;7860;52.030;5.572;2022-09-09T05:00:09;10.59;;;4.21;;
15516;SDS011;7860;52.030;5.572;2022-09-09T05:01:09;9.99;;;4.37;;
15516;SDS011;7860;52.030;5.572;2022-09-09T05:02:08;11.12;;;4.55;;
15516;SDS011;7860;52.030;5.572;2022-09-09T05:03:08;10.70;;;3.94;;
15516;SDS011;7860;52.030;5.572;2022-09-09T05:04:08;13.34;;;5.04;;
15516;SDS011;7860;52.030;5.572;2022-09-09T05:05:08;14.70;;;4.55;;
15516;SDS011;7860;52.030;5.572;2022-09-09T05:06:08;13.80;;;4.52;;
15516;SDS011;7860;52.030;5.572;2022-09-09T05:07:08;12.34;;;4.14;;
15516;SDS011;7860;52.030;5.572;2022-09-09T05:08:08;12.75;;;4.60;;
15516;SDS011;7860;52.030;5.572;2022-09-09T05:09:08;9.95;;;4.21;;
15516;SDS011;7860;52.030;5.572;2022-09-09T05:10:08;11.27;;;4.36;;
15516;SDS011;7860;52.030;5.572;2022-09-09T05:11:13;13.31;;;4.96;;
15516;SDS011;7860;52.030;5.572;2022-09-09T05:12:09;10.97;;;4.51;;
15516;SDS011;7860;52.030;5.572;2022-09-09T05:13:09;12.22;;;4.77;;
15516;SDS011;7860;52.030;5.572;2022-09-09T05:14:09;14.33;;;5.05;;
15516;SDS011;7860;52.030;5.572;2022-09-09T05:15:10;12.67;;;4.55;;
15516;SDS011;7860;52.030;5.572;2022-09-09T05:16:10;12.97;;;4.95;;
15516;SDS011;7860;52.030;5.572;2022-09-09T05:17:10;12.57;;;5.18;;
15516;SDS011;7860;52.030;5.572;2022-09-09T05:18:10;12.15;;;4.68;;
15516;SDS011;7860;52.030;5.572;2022-09-09T05:19:10;13.92;;;4.59;;
15516;SDS011;7860;52.030;5.572;2022-09-09T05:20:10;12.03;;;4.55;;
15516;SDS011;7860;52.030;5.572;2022-09-09T05:21:10;13.34;;;4.50;;
15516;SDS011;7860;52.030;5.572;2022-09-09T05:22:10;12.19;;;4.13;;
15516;SDS011;7860;52.030;5.572;2022-09-09T05:23:10;9.72;;;4.09;;
15516;SDS011;7860;52.030;5.572;2022-09-09T05:24:10;13.08;;;4.16;;
15516;SDS011;7860;52.030;5.572;2022-09-09T05:25:10;13.34;;;4.16;;
15516;SDS011;7860;52.030;5.572;2022-09-09T05:26:12;13.31;;;5.04;;
15516;SDS011;7860;52.030;5.572;2022-09-09T05:27:11;9.27;;;3.99;;
15516;SDS011;7860;52.030;5.572;2022-09-09T05:28:11;9.69;;;4.57;;
15516;SDS011;7860;52.030;5.572;2022-09-09T05:29:11;13.40;;;4.70;;
15516;SDS011;7860;52.030;5.572;2022-09-09T05:30:11;13.13;;;4.58;;
15516;SDS011;7860;52.030;5.572;2022-09-09T05:31:11;9.75;;;4.16;;
15516;SDS011;7860;52.030;5.572;2022-09-09T05:32:12;11.13;;;4.50;;
15516;SDS011;7860;52.030;5.572;2022-09-09T05:33:11;10.64;;;4.23;;
15516;SDS011;7860;52.030;5.572;2022-09-09T05:34:11;11.58;;;4.40;;
15516;SDS011;7860;52.030;5.572;2022-09-09T05:35:12;9.98;;;4.16;;
15516;SDS011;7860;52.030;5.572;2022-09-09T05:36:13;12.03;;;4.33;;
15516;SDS011;7860;52.030;5.572;2022-09-09T05:37:13;14.45;;;4.59;;
15516;SDS011;7860;52.030;5.572;2022-09-09T05:38:13;10.70;;;4.32;;
15516;SDS011;7860;52.030;5.572;2022-09-09T05:39:13;12.22;;;4.42;;
15516;SDS011;7860;52.030;5.572;2022-09-09T05:40:14;12.00;;;4.43;;
15516;SDS011;7860;52.030;5.572;2022-09-09T05:41:14;12.39;;;4.05;;
15516;SDS011;7860;52.030;5.572;2022-09-09T05:42:15;10.68;;;4.17;;
15516;SDS011;7860;52.030;5.572;2022-09-09T05:43:15;10.15;;;4.06;;
15516;SDS011;7860;52.030;5.572;2022-09-09T05:44:15;12.78;;;4.35;;
15516;SDS011;7860;52.030;5.572;2022-09-09T05:45:15;10.91;;;4.31;;
15516;SDS011;7860;52.030;5.572;2022-09-09T05:46:15;12.61;;;4.38;;
15516;SDS011;7860;52.030;5.572;2022-09-09T05:47:15;11.17;;;4.40;;
15516;SDS011;7860;52.030;5.572;2022-09-09T05:48:15;11.70;;;4.23;;
15516;SDS011;7860;52.030;5.572;2022-09-09T05:49:15;11.04;;;3.96;;
15516;SDS011;7860;52.030;5.572;2022-09-09T05:50:15;12.44;;;4.37;;
15516;SDS011;7860;52.030;5.572;2022-09-09T05:51:15;12.24;;;4.27;;
15516;SDS011;7860;52.030;5.572;2022-09-09T05:52:15;11.63;;;4.10;;
15516;SDS011;7860;52.030;5.572;2022-09-09T05:53:15;16.03;;;4.42;;
15516;SDS011;7860;52.030;5.572;2022-09-09T05:54:15;15.25;;;4.37;;
15516;SDS011;7860;52.030;5.572;2022-09-09T05:55:15;10.32;;;3.98;;
15516;SDS011;7860;52.030;5.572;2022-09-09T05:56:16;14.25;;;4.76;;
15516;SDS011;7860;52.030;5.572;2022-09-09T05:57:15;11.77;;;4.26;;
15516;SDS011;7860;52.030;5.572;2022-09-09T05:58:15;10.45;;;3.99;;
15516;SDS011;7860;52.030;5.572;2022-09-09T05:59:15;12.51;;;4.45;;
15516;SDS011;7860;52.030;5.572;2022-09-09T06:00:15;10.12;;;3.88;;
15516;SDS011;7860;52.030;5.572;2022-09-09T06:01:17;12.33;;;4.47;;
15516;SDS011;7860;52.030;5.572;2022-09-09T06:02:16;11.94;;;4.16;;
15516;SDS011;7860;52.030;5.572;2022-09-09T06:03:16;12.79;;;4.39;;
15516;SDS011;7860;52.030;5.572;2022-09-09T06:04:17;10.81;;;4.42;;
15516;SDS011;7860;52.030;5.572;2022-09-09T06:05:17;12.57;;;4.01;;